Time,TemperatureF,DewpointF,PressureIn,WindDirection,WindDirectionDegrees,WindSpeedMPH,WindSpeedGustMPH,Humidity,HourlyPrecipIn,Conditions,Clouds,dailyrainin,SoftwareType,DateUTC
2013-11-08 00:00:00,40.7,32.7,30.17,North,1,0.0,0.0,73,0.00,RA,,0.00,WeatherDisplay:10.37,2013-11-08 05:00:00,
2013-11-08 01:00:00,39.8,31.9,30.18,North,1,0.0,0.0,73,0.00,CLR,,0.00,WeatherDisplay:10.37,2013-11-08 06:00:00,
2013-11-08 02:00:00,37.2,29.4,30.18,North,1,0.0,0.0,73,0.00,CLR,,0.00,WeatherDisplay:10.37,2013-11-08 07:00:00,
2013-11-08 03:00:00,38.7,30.7,30.19,North,1,0.0,14.0,73,0.00,CLR,,0.00,WeatherDisplay:10.37,2013-11-08 08:00:00,
2013-11-08 04:00:00,38.3,30.4,30.20,North,1,0.0,0.0,73,0.00,CLR,,0.00,WeatherDisplay:10.37,2013-11-08 09:00:00,
2013-11-08 05:00:00,37.6,29.7,30.22,North,2,0.0,0.0,73,0.00,CLR,,0.00,WeatherDisplay:10.37,2013-11-08 10:00:00,
2013-11-08 06:00:00,35.2,27.4,30.24,North,1,0.0,0.0,73,0.00,CLR,,0.00,WeatherDisplay:10.37,2013-11-08 11:00:00,
2013-11-08 07:00:00,36.5,28.6,30.26,North,1,0.0,0.0,73,0.00,CLR,,0.00,WeatherDisplay:10.37,2013-11-08 12:00:00,
2013-11-08 08:00:00,34.6,26.9,30.28,North,0,0.0,0.0,73,0.00,CLR,,0.00,WeatherDisplay:10.37,2013-11-08 13:00:00,
2013-11-08 09:00:00,36.9,29.0,30.29,North,1,0.0,0.0,73,0.00,CLR,,0.00,WeatherDisplay:10.37,2013-11-08 14:00:00,
2013-11-08 10:00:00,42.2,34.1,30.29,North,1,0.0,0.0,73,0.00,CLR,,0.00,WeatherDisplay:10.37,2013-11-08 15:00:00,
2013-11-08 11:00:00,46.2,38.0,30.30,North,1,0.0,0.0,73,0.00,CLR,,0.00,WeatherDisplay:10.37,2013-11-08 16:00:00,
2013-11-08 12:00:00,51.9,27.1,30.27,SE,130,0.0,9.0,38,0.00,CLR,,0.00,WeatherDisplay:10.37,2013-11-08 17:00:00,
2013-11-08 13:00:00,54.0,24.0,30.25,ENE,61,2.0,12.0,31,0.00,CLR,,0.00,WeatherDisplay:10.37,2013-11-08 18:00:00,
2013-11-08 14:00:00,55.3,21.9,30.23,NE,39,5.0,12.0,27,0.00,CLR,,0.00,WeatherDisplay:10.37,2013-11-08 19:00:00,
2013-11-08 15:00:00,55.9,19.6,30.22,NE,45,3.0,12.0,24,0.00,CLR,,0.00,WeatherDisplay:10.37,2013-11-08 20:00:00,
2013-11-08 16:00:00,53.6,22.0,30.21,NNE,30,0.0,9.0,29,0.00,CLR,,0.00,WeatherDisplay:10.37,2013-11-08 21:00:00,
2013-11-08 17:00:00,50.3,22.9,30.21,SW,226,0.0,7.0,34,0.00,CLR,,0.00,WeatherDisplay:10.37,2013-11-08 22:00:00,
2013-11-08 18:00:00,42.3,31.7,30.20,SW,226,0.0,4.0,66,0.00,CLR,,0.00,WeatherDisplay:10.37,2013-11-08 23:00:00,
2013-11-08 19:00:00,38.2,32.2,30.23,SW,226,0.0,1.0,79,0.00,CLR,,0.00,WeatherDisplay:10.37,2013-11-09 00:00:00,
2013-11-08 20:00:00,35.3,30.7,30.24,SW,226,0.0,1.0,83,0.00,CLR,,0.00,WeatherDisplay:10.37,2013-11-09 01:00:00,
2013-11-08 21:00:00,33.1,29.4,30.24,SW,226,0.0,0.0,86,0.00,CLR,,0.00,WeatherDisplay:10.37,2013-11-09 02:00:00,
2013-11-08 22:00:00,31.5,28.4,30.26,SW,226,0.0,0.0,88,0.00,CLR,,0.00,WeatherDisplay:10.37,2013-11-09 03:00:00,
2013-11-08 23:00:00,31.1,27.9,30.26,North,3,0.0,0.0,88,0.00,CLR,,0.00,WeatherDisplay:10.37,2013-11-09 04:00:00,